sensor_id;sensor_type;location;lat;lon;timestamp;P1;durP1;ratioP1;P2;durP2;ratioP2
61675;SDS011;47574;52.090;5.244;2022-08-11T00:00:20;2.6;;;1.7;;
61675;SDS011;47574;52.090;5.244;2022-08-11T00:02:24;2.5;;;1.8;;
61675;SDS011;47574;52.090;5.244;2022-08-11T00:04:14;4.1;;;1.6;;
61675;SDS011;47574;52.090;5.244;2022-08-11T00:07:51;4.91;;;1.7;;
61675;SDS011;47574;52.090;5.244;2022-08-11T00:09:39;1.9;;;1.7;;
61675;SDS011;47574;52.090;5.244;2022-08-11T00:11:35;5.0;;;1.5;;
61675;SDS011;47574;52.090;5.244;2022-08-11T00:13:29;3.4;;;1.5;;
61675;SDS011;47574;52.090;5.244;2022-08-11T00:15:18;3.0;;;1.7;;
61675;SDS011;47574;52.090;5.244;2022-08-11T00:17:08;4.2;;;1.8;;
61675;SDS011;47574;52.090;5.244;2022-08-11T00:18:59;5.3;;;1.7;;
61675;SDS011;47574;52.090;5.244;2022-08-11T00:22:36;2.0;;;1.7;;
61675;SDS011;47574;52.090;5.244;2022-08-11T00:24:30;1.9;;;1.7;;
61675;SDS011;47574;52.090;5.244;2022-08-11T00:26:20;3.9;;;1.9;;
61675;SDS011;47574;52.090;5.244;2022-08-11T00:28:24;2.9;;;1.4;;
61675;SDS011;47574;52.090;5.244;2022-08-11T00:30:13;2.8;;;1.7;;
61675;SDS011;47574;52.090;5.244;2022-08-11T00:32:02;4.61;;;1.6;;
61675;SDS011;47574;52.090;5.244;2022-08-11T00:33:51;5.2;;;1.9;;
61675;SDS011;47574;52.090;5.244;2022-08-11T00:35:38;4.3;;;1.8;;
61675;SDS011;47574;52.090;5.244;2022-08-11T00:39:13;2.9;;;2.0;;
61675;SDS011;47574;52.090;5.244;2022-08-11T00:41:05;2.1;;;1.4;;
61675;SDS011;47574;52.090;5.244;2022-08-11T00:43:09;3.0;;;1.8;;
61675;SDS011;47574;52.090;5.244;2022-08-11T00:45:26;3.0;;;1.6;;
61675;SDS011;47574;52.090;5.244;2022-08-11T00:47:20;1.7;;;1.5;;
61675;SDS011;47574;52.090;5.244;2022-08-11T00:49:23;2.4;;;1.7;;
61675;SDS011;47574;52.090;5.244;2022-08-11T00:51:31;3.1;;;1.8;;
61675;SDS011;47574;52.090;5.244;2022-08-11T00:53:36;2.0;;;1.5;;
61675;SDS011;47574;52.090;5.244;2022-08-11T00:55:38;1.7;;;1.6;;
61675;SDS011;47574;52.090;5.244;2022-08-11T00:59:22;3.6;;;1.7;;
61675;SDS011;47574;52.090;5.244;2022-08-11T01:02:14;3.6;;;1.6;;
61675;SDS011;47574;52.090;5.244;2022-08-11T01:04:25;4.1;;;1.6;;
61675;SDS011;47574;52.090;5.244;2022-08-11T01:06:50;4.1;;;1.6;;
61675;SDS011;47574;52.090;5.244;2022-08-11T01:09:13;4.0;;;1.8;;
61675;SDS011;47574;52.090;5.244;2022-08-11T01:12:20;2.4;;;1.7;;
61675;SDS011;47574;52.090;5.244;2022-08-11T01:15:03;3.6;;;1.8;;
61675;SDS011;47574;52.090;5.244;2022-08-11T01:19:45;4.1;;;2.0;;
61675;SDS011;47574;52.090;5.244;2022-08-11T01:22:35;2.1;;;1.6;;
61675;SDS011;47574;52.090;5.244;2022-08-11T01:23:33;2.1;;;1.6;;
61675;SDS011;47574;52.090;5.244;2022-08-11T01:24:41;3.8;;;1.8;;
61675;SDS011;47574;52.090;5.244;2022-08-11T01:25:57;3.8;;;1.8;;
61675;SDS011;47574;52.090;5.244;2022-08-11T01:29:32;4.61;;;2.0;;
61675;SDS011;47574;52.090;5.244;2022-08-11T01:33:01;3.9;;;1.7;;
61675;SDS011;47574;52.090;5.244;2022-08-11T01:33:38;3.9;;;1.7;;
61675;SDS011;47574;52.090;5.244;2022-08-11T01:35:29;5.5;;;1.7;;
61675;SDS011;47574;52.090;5.244;2022-08-11T01:39:18;2.4;;;1.6;;
61675;SDS011;47574;52.090;5.244;2022-08-11T01:40:30;2.0;;;1.8;;
61675;SDS011;47574;52.090;5.244;2022-08-11T01:41:28;2.0;;;1.8;;
61675;SDS011;47574;52.090;5.244;2022-08-11T01:45:01;2.9;;;1.8;;
61675;SDS011;47574;52.090;5.244;2022-08-11T01:47:54;3.3;;;1.8;;
61675;SDS011;47574;52.090;5.244;2022-08-11T01:49:53;1.9;;;1.7;;
61675;SDS011;47574;52.090;5.244;2022-08-11T01:51:59;4.61;;;2.1;;
61675;SDS011;47574;52.090;5.244;2022-08-11T01:53:56;2.1;;;1.9;;
61675;SDS011;47574;52.090;5.244;2022-08-11T01:55:51;2.5;;;1.9;;
61675;SDS011;47574;52.090;5.244;2022-08-11T01:57:49;2.7;;;1.9;;
61675;SDS011;47574;52.090;5.244;2022-08-11T01:59:48;2.6;;;1.9;;
61675;SDS011;47574;52.090;5.244;2022-08-11T02:01:47;2.31;;;2.0;;
61675;SDS011;47574;52.090;5.244;2022-08-11T02:04:03;3.5;;;1.9;;
61675;SDS011;47574;52.090;5.244;2022-08-11T02:06:54;4.0;;;2.5;;
61675;SDS011;47574;52.090;5.244;2022-08-11T02:08:51;2.1;;;1.9;;
61675;SDS011;47574;52.090;5.244;2022-08-11T02:11:51;2.7;;;2.0;;
61675;SDS011;47574;52.090;5.244;2022-08-11T02:13:56;4.1;;;2.21;;
61675;SDS011;47574;52.090;5.244;2022-08-11T02:24:02;7.2;;;2.4;;
61675;SDS011;47574;52.090;5.244;2022-08-11T02:26:01;2.31;;;2.1;;
61675;SDS011;47574;52.090;5.244;2022-08-11T02:27:54;2.8;;;2.5;;
61675;SDS011;47574;52.090;5.244;2022-08-11T02:29:50;4.8;;;2.4;;
61675;SDS011;47574;52.090;5.244;2022-08-11T02:35:00;4.7;;;2.5;;
61675;SDS011;47574;52.090;5.244;2022-08-11T02:37:00;3.1;;;2.6;;
61675;SDS011;47574;52.090;5.244;2022-08-11T02:40:56;4.0;;;2.5;;
61675;SDS011;47574;52.090;5.244;2022-08-11T02:42:49;3.7;;;2.5;;
61675;SDS011;47574;52.090;5.244;2022-08-11T02:44:50;2.8;;;2.4;;
61675;SDS011;47574;52.090;5.244;2022-08-11T02:46:56;3.9;;;2.7;;
61675;SDS011;47574;52.090;5.244;2022-08-11T02:49:57;3.9;;;2.5;;
61675;SDS011;47574;52.090;5.244;2022-08-11T02:52:01;3.7;;;2.5;;
61675;SDS011;47574;52.090;5.244;2022-08-11T02:53:58;4.3;;;2.8;;
61675;SDS011;47574;52.090;5.244;2022-08-11T02:55:57;3.7;;;2.6;;
61675;SDS011;47574;52.090;5.244;2022-08-11T02:57:54;2.8;;;2.6;;
61675;SDS011;47574;52.090;5.244;2022-08-11T03:01:43;5.11;;;3.0;;
61675;SDS011;47574;52.090;5.244;2022-08-11T03:03:43;5.11;;;3.0;;
61675;SDS011;47574;52.090;5.244;2022-08-11T03:05:43;3.9;;;3.0;;
61675;SDS011;47574;52.090;5.244;2022-08-11T03:08:13;3.7;;;2.9;;
61675;SDS011;47574;52.090;5.244;2022-08-11T03:10:09;5.8;;;3.3;;
61675;SDS011;47574;52.090;5.244;2022-08-11T03:18:14;4.7;;;3.2;;
61675;SDS011;47574;52.090;5.244;2022-08-11T03:20:23;3.5;;;3.2;;
61675;SDS011;47574;52.090;5.244;2022-08-11T03:22:22;3.2;;;2.9;;
61675;SDS011;47574;52.090;5.244;2022-08-11T03:24:16;4.2;;;3.1;;
61675;SDS011;47574;52.090;5.244;2022-08-11T03:26:12;3.2;;;2.9;;
61675;SDS011;47574;52.090;5.244;2022-08-11T03:28:20;5.2;;;3.0;;
61675;SDS011;47574;52.090;5.244;2022-08-11T03:30:15;3.8;;;3.1;;
61675;SDS011;47574;52.090;5.244;2022-08-11T03:32:06;3.9;;;3.0;;
61675;SDS011;47574;52.090;5.244;2022-08-11T03:34:05;3.9;;;2.8;;
61675;SDS011;47574;52.090;5.244;2022-08-11T03:36:00;3.7;;;3.2;;
61675;SDS011;47574;52.090;5.244;2022-08-11T03:38:06;3.2;;;2.9;;
61675;SDS011;47574;52.090;5.244;2022-08-11T03:39:58;3.1;;;2.8;;
61675;SDS011;47574;52.090;5.244;2022-08-11T03:42:00;5.2;;;3.2;;
61675;SDS011;47574;52.090;5.244;2022-08-11T03:44:31;5.2;;;2.9;;
61675;SDS011;47574;52.090;5.244;2022-08-11T03:46:33;3.2;;;2.9;;
61675;SDS011;47574;52.090;5.244;2022-08-11T03:48:42;4.0;;;2.8;;
61675;SDS011;47574;52.090;5.244;2022-08-11T03:51:12;3.5;;;2.9;;
61675;SDS011;47574;52.090;5.244;2022-08-11T03:53:07;4.0;;;3.4;;
61675;SDS011;47574;52.090;5.244;2022-08-11T03:55:07;3.4;;;2.8;;
61675;SDS011;47574;52.090;5.244;2022-08-11T03:58:08;3.3;;;3.0;;
61675;SDS011;47574;52.090;5.244;2022-08-11T04:00:49;3.7;;;2.8;;
61675;SDS011;47574;52.090;5.244;2022-08-11T04:04:15;3.3;;;3.0;;
61675;SDS011;47574;52.090;5.244;2022-08-11T04:07:40;3.3;;;3.0;;
61675;SDS011;47574;52.090;5.244;2022-08-11T04:12:01;4.1;;;2.9;;
61675;SDS011;47574;52.090;5.244;2022-08-11T04:16:41;4.91;;;3.4;;
61675;SDS011;47574;52.090;5.244;2022-08-11T04:19:55;3.3;;;2.9;;
61675;SDS011;47574;52.090;5.244;2022-08-11T04:21:35;3.7;;;3.2;;
61675;SDS011;47574;52.090;5.244;2022-08-11T04:24:26;4.1;;;3.2;;
61675;SDS011;47574;52.090;5.244;2022-08-11T04:26:51;4.41;;;3.2;;
61675;SDS011;47574;52.090;5.244;2022-08-11T04:29:09;4.0;;;3.5;;
61675;SDS011;47574;52.090;5.244;2022-08-11T04:31:09;4.0;;;3.5;;
61675;SDS011;47574;52.090;5.244;2022-08-11T04:33:47;4.3;;;3.6;;
61675;SDS011;47574;52.090;5.244;2022-08-11T04:35:51;4.2;;;3.5;;
61675;SDS011;47574;52.090;5.244;2022-08-11T04:37:54;3.9;;;3.5;;
61675;SDS011;47574;52.090;5.244;2022-08-11T04:40:39;4.1;;;3.2;;
61675;SDS011;47574;52.090;5.244;2022-08-11T04:45:39;3.7;;;3.4;;
61675;SDS011;47574;52.090;5.244;2022-08-11T05:02:05;3.9;;;3.4;;
61675;SDS011;47574;52.090;5.244;2022-08-11T05:08:31;6.2;;;3.7;;
61675;SDS011;47574;52.090;5.244;2022-08-11T05:34:56;4.8;;;3.5;;
61675;SDS011;47574;52.090;5.244;2022-08-11T05:35:26;3.9;;;3.6;;
61675;SDS011;47574;52.090;5.244;2022-08-11T05:37:19;4.0;;;3.6;;
61675;SDS011;47574;52.090;5.244;2022-08-11T05:57:28;4.41;;;3.7;;
61675;SDS011;47574;52.090;5.244;2022-08-11T05:59:19;4.5;;;3.4;;
61675;SDS011;47574;52.090;5.244;2022-08-11T06:01:08;5.4;;;3.7;;
61675;SDS011;47574;52.090;5.244;2022-08-11T06:02:58;5.11;;;3.6;;
61675;SDS011;47574;52.090;5.244;2022-08-11T06:04:52;4.41;;;3.6;;
61675;SDS011;47574;52.090;5.244;2022-08-11T06:06:50;4.0;;;3.2;;
61675;SDS011;47574;52.090;5.244;2022-08-11T06:08:43;3.9;;;3.0;;
61675;SDS011;47574;52.090;5.244;2022-08-11T06:10:33;11.0;;;3.5;;
61675;SDS011;47574;52.090;5.244;2022-08-11T06:14:11;9.21;;;3.5;;
61675;SDS011;47574;52.090;5.244;2022-08-11T06:15:59;4.5;;;3.5;;
61675;SDS011;47574;52.090;5.244;2022-08-11T06:17:47;4.8;;;3.0;;
61675;SDS011;47574;52.090;5.244;2022-08-11T06:19:35;7.0;;;3.3;;
61675;SDS011;47574;52.090;5.244;2022-08-11T06:21:27;6.7;;;3.2;;
61675;SDS011;47574;52.090;5.244;2022-08-11T06:23:17;5.8;;;3.2;;
61675;SDS011;47574;52.090;5.244;2022-08-11T06:25:05;5.6;;;3.2;;
61675;SDS011;47574;52.090;5.244;2022-08-11T06:28:44;3.8;;;2.9;;
61675;SDS011;47574;52.090;5.244;2022-08-11T06:30:33;3.6;;;2.9;;
61675;SDS011;47574;52.090;5.244;2022-08-11T06:32:23;4.91;;;2.8;;
61675;SDS011;47574;52.090;5.244;2022-08-11T06:34:13;3.7;;;2.9;;
61675;SDS011;47574;52.090;5.244;2022-08-11T06:36:21;3.6;;;2.8;;
61675;SDS011;47574;52.090;5.244;2022-08-11T06:38:19;4.3;;;3.1;;
61675;SDS011;47574;52.090;5.244;2022-08-11T06:40:25;6.2;;;2.9;;
61675;SDS011;47574;52.090;5.244;2022-08-11T06:42:30;5.7;;;2.9;;
61675;SDS011;47574;52.090;5.244;2022-08-11T06:44:23;5.3;;;3.0;;
61675;SDS011;47574;52.090;5.244;2022-08-11T06:46:15;4.2;;;2.9;;
61675;SDS011;47574;52.090;5.244;2022-08-11T06:48:14;6.4;;;2.8;;
61675;SDS011;47574;52.090;5.244;2022-08-11T06:53:04;3.2;;;2.6;;
61675;SDS011;47574;52.090;5.244;2022-08-11T06:54:56;3.4;;;2.31;;
61675;SDS011;47574;52.090;5.244;2022-08-11T07:00:29;5.6;;;2.4;;
61675;SDS011;47574;52.090;5.244;2022-08-11T07:02:21;3.8;;;2.0;;
61675;SDS011;47574;52.090;5.244;2022-08-11T07:04:15;5.4;;;2.31;;
61675;SDS011;47574;52.090;5.244;2022-08-11T07:06:16;2.9;;;2.31;;
61675;SDS011;47574;52.090;5.244;2022-08-11T07:16:03;4.0;;;2.21;;
61675;SDS011;47574;52.090;5.244;2022-08-11T07:28:57;2.21;;;1.9;;
61675;SDS011;47574;52.090;5.244;2022-08-11T07:30:46;7.0;;;1.9;;
61675;SDS011;47574;52.090;5.244;2022-08-11T07:32:36;2.8;;;1.9;;
61675;SDS011;47574;52.090;5.244;2022-08-11T07:34:36;3.5;;;1.8;;
61675;SDS011;47574;52.090;5.244;2022-08-11T07:36:30;3.9;;;2.21;;
61675;SDS011;47574;52.090;5.244;2022-08-11T07:38:21;4.2;;;2.4;;
61675;SDS011;47574;52.090;5.244;2022-08-11T07:42:03;2.5;;;1.8;;
61675;SDS011;47574;52.090;5.244;2022-08-11T07:43:54;5.11;;;1.9;;
61675;SDS011;47574;52.090;5.244;2022-08-11T07:52:53;4.5;;;2.0;;
61675;SDS011;47574;52.090;5.244;2022-08-11T07:54:40;3.6;;;2.0;;
61675;SDS011;47574;52.090;5.244;2022-08-11T07:56:27;4.3;;;1.8;;
61675;SDS011;47574;52.090;5.244;2022-08-11T08:19:35;6.6;;;2.4;;
61675;SDS011;47574;52.090;5.244;2022-08-11T08:21:23;5.5;;;2.1;;
61675;SDS011;47574;52.090;5.244;2022-08-11T08:23:09;4.7;;;2.0;;
61675;SDS011;47574;52.090;5.244;2022-08-11T08:24:56;3.5;;;1.8;;
61675;SDS011;47574;52.090;5.244;2022-08-11T08:26:59;5.5;;;1.7;;
61675;SDS011;47574;52.090;5.244;2022-08-11T08:28:46;4.5;;;1.8;;
61675;SDS011;47574;52.090;5.244;2022-08-11T08:30:49;3.2;;;2.0;;
61675;SDS011;47574;52.090;5.244;2022-08-11T08:32:37;6.6;;;2.0;;
61675;SDS011;47574;52.090;5.244;2022-08-11T08:36:15;4.41;;;1.8;;
61675;SDS011;47574;52.090;5.244;2022-08-11T08:38:02;5.6;;;1.7;;
61675;SDS011;47574;52.090;5.244;2022-08-11T08:39:49;2.7;;;2.0;;
61675;SDS011;47574;52.090;5.244;2022-08-11T08:41:37;2.9;;;1.6;;
61675;SDS011;47574;52.090;5.244;2022-08-11T08:43:25;4.1;;;2.4;;
61675;SDS011;47574;52.090;5.244;2022-08-11T08:45:15;4.41;;;2.1;;
61675;SDS011;47574;52.090;5.244;2022-08-11T08:48:56;3.8;;;1.6;;
61675;SDS011;47574;52.090;5.244;2022-08-11T08:51:52;4.3;;;1.7;;
61675;SDS011;47574;52.090;5.244;2022-08-11T08:53:45;4.2;;;2.1;;
61675;SDS011;47574;52.090;5.244;2022-08-11T08:55:40;4.1;;;2.0;;
61675;SDS011;47574;52.090;5.244;2022-08-11T08:59:21;9.6;;;1.8;;
61675;SDS011;47574;52.090;5.244;2022-08-11T09:01:11;6.9;;;2.1;;
61675;SDS011;47574;52.090;5.244;2022-08-11T09:03:01;3.4;;;1.9;;
61675;SDS011;47574;52.090;5.244;2022-08-11T09:04:49;3.2;;;2.1;;
61675;SDS011;47574;52.090;5.244;2022-08-11T09:06:39;4.2;;;2.1;;
61675;SDS011;47574;52.090;5.244;2022-08-11T09:08:29;3.8;;;2.21;;
61675;SDS011;47574;52.090;5.244;2022-08-11T09:10:18;7.0;;;2.21;;
61675;SDS011;47574;52.090;5.244;2022-08-11T09:13:56;4.0;;;2.0;;
61675;SDS011;47574;52.090;5.244;2022-08-11T09:15:44;7.7;;;1.8;;
61675;SDS011;47574;52.090;5.244;2022-08-11T09:17:32;7.5;;;1.9;;
61675;SDS011;47574;52.090;5.244;2022-08-11T09:19:22;5.7;;;2.1;;
61675;SDS011;47574;52.090;5.244;2022-08-11T09:21:14;3.3;;;2.0;;
61675;SDS011;47574;52.090;5.244;2022-08-11T09:27:11;7.1;;;2.1;;
61675;SDS011;47574;52.090;5.244;2022-08-11T09:29:00;6.0;;;2.21;;
61675;SDS011;47574;52.090;5.244;2022-08-11T09:30:49;3.1;;;1.9;;
61675;SDS011;47574;52.090;5.244;2022-08-11T09:32:40;5.3;;;2.1;;
61675;SDS011;47574;52.090;5.244;2022-08-11T09:34:28;3.3;;;1.9;;
61675;SDS011;47574;52.090;5.244;2022-08-11T09:40:32;6.9;;;2.21;;
61675;SDS011;47574;52.090;5.244;2022-08-11T09:42:19;6.9;;;2.0;;
61675;SDS011;47574;52.090;5.244;2022-08-11T09:45:12;3.2;;;2.21;;
61675;SDS011;47574;52.090;5.244;2022-08-11T09:46:59;4.7;;;2.0;;
61675;SDS011;47574;52.090;5.244;2022-08-11T09:48:48;2.7;;;1.7;;
61675;SDS011;47574;52.090;5.244;2022-08-11T09:50:38;2.7;;;1.8;;
61675;SDS011;47574;52.090;5.244;2022-08-11T09:52:25;5.4;;;1.9;;
61675;SDS011;47574;52.090;5.244;2022-08-11T09:54:16;3.2;;;2.1;;
61675;SDS011;47574;52.090;5.244;2022-08-11T10:00:00;3.6;;;1.9;;
61675;SDS011;47574;52.090;5.244;2022-08-11T10:01:49;3.0;;;1.5;;
61675;SDS011;47574;52.090;5.244;2022-08-11T10:03:47;4.41;;;1.7;;
61675;SDS011;47574;52.090;5.244;2022-08-11T10:08:36;5.7;;;2.0;;
61675;SDS011;47574;52.090;5.244;2022-08-11T10:10:25;5.11;;;1.4;;
61675;SDS011;47574;52.090;5.244;2022-08-11T10:12:15;1.6;;;1.5;;
61675;SDS011;47574;52.090;5.244;2022-08-11T10:17:17;5.0;;;1.7;;
61675;SDS011;47574;52.090;5.244;2022-08-11T10:20:57;3.1;;;1.4;;
61675;SDS011;47574;52.090;5.244;2022-08-11T10:26:54;3.2;;;1.7;;
61675;SDS011;47574;52.090;5.244;2022-08-11T10:35:38;11.0;;;1.8;;
61675;SDS011;47574;52.090;5.244;2022-08-11T10:37:33;4.3;;;1.6;;
61675;SDS011;47574;52.090;5.244;2022-08-11T10:39:22;2.6;;;1.6;;
61675;SDS011;47574;52.090;5.244;2022-08-11T10:44:15;4.7;;;1.7;;
61675;SDS011;47574;52.090;5.244;2022-08-11T10:49:06;4.0;;;2.1;;
61675;SDS011;47574;52.090;5.244;2022-08-11T11:00:06;6.5;;;2.1;;
61675;SDS011;47574;52.090;5.244;2022-08-11T11:01:57;5.0;;;2.1;;
61675;SDS011;47574;52.090;5.244;2022-08-11T11:03:45;3.0;;;1.9;;
61675;SDS011;47574;52.090;5.244;2022-08-11T11:05:32;9.0;;;1.9;;
61675;SDS011;47574;52.090;5.244;2022-08-11T11:07:26;2.4;;;1.9;;
61675;SDS011;47574;52.090;5.244;2022-08-11T11:11:15;8.1;;;2.1;;
61675;SDS011;47574;52.090;5.244;2022-08-11T11:19:50;2.6;;;2.21;;
61675;SDS011;47574;52.090;5.244;2022-08-11T11:21:44;3.4;;;2.6;;
61675;SDS011;47574;52.090;5.244;2022-08-11T11:23:37;6.8;;;1.9;;
61675;SDS011;47574;52.090;5.244;2022-08-11T11:25:31;8.71;;;2.6;;
61675;SDS011;47574;52.090;5.244;2022-08-11T11:27:31;9.6;;;2.5;;
61675;SDS011;47574;52.090;5.244;2022-08-11T11:29:35;6.5;;;1.8;;
61675;SDS011;47574;52.090;5.244;2022-08-11T11:31:47;6.7;;;2.0;;
61675;SDS011;47574;52.090;5.244;2022-08-11T11:33:50;4.1;;;1.8;;
61675;SDS011;47574;52.090;5.244;2022-08-11T11:36:03;4.3;;;1.9;;
61675;SDS011;47574;52.090;5.244;2022-08-11T11:38:00;8.81;;;1.6;;
61675;SDS011;47574;52.090;5.244;2022-08-11T11:39:50;2.1;;;1.7;;
61675;SDS011;47574;52.090;5.244;2022-08-11T11:41:40;2.7;;;1.8;;
61675;SDS011;47574;52.090;5.244;2022-08-11T11:43:27;4.1;;;1.8;;
61675;SDS011;47574;52.090;5.244;2022-08-11T11:45:14;3.4;;;1.9;;
61675;SDS011;47574;52.090;5.244;2022-08-11T11:48:52;3.2;;;1.5;;
61675;SDS011;47574;52.090;5.244;2022-08-11T11:50:40;3.8;;;1.7;;
61675;SDS011;47574;52.090;5.244;2022-08-11T11:52:27;6.2;;;1.7;;
61675;SDS011;47574;52.090;5.244;2022-08-11T11:54:14;2.4;;;1.6;;
61675;SDS011;47574;52.090;5.244;2022-08-11T11:56:06;3.1;;;1.4;;
61675;SDS011;47574;52.090;5.244;2022-08-11T12:01:27;2.5;;;1.5;;
61675;SDS011;47574;52.090;5.244;2022-08-11T12:03:17;4.3;;;1.6;;
61675;SDS011;47574;52.090;5.244;2022-08-11T12:05:06;5.0;;;1.6;;
61675;SDS011;47574;52.090;5.244;2022-08-11T12:08:08;6.4;;;1.6;;
61675;SDS011;47574;52.090;5.244;2022-08-11T12:09:58;1.8;;;1.4;;
61675;SDS011;47574;52.090;5.244;2022-08-11T12:14:48;7.1;;;1.6;;
61675;SDS011;47574;52.090;5.244;2022-08-11T12:16:36;2.6;;;2.0;;
61675;SDS011;47574;52.090;5.244;2022-08-11T12:20:15;5.2;;;1.7;;
61675;SDS011;47574;52.090;5.244;2022-08-11T12:28:09;3.2;;;1.6;;
61675;SDS011;47574;52.090;5.244;2022-08-11T12:29:56;5.9;;;1.8;;
61675;SDS011;47574;52.090;5.244;2022-08-11T12:31:46;3.1;;;1.5;;
61675;SDS011;47574;52.090;5.244;2022-08-11T12:33:34;2.5;;;1.3;;
61675;SDS011;47574;52.090;5.244;2022-08-11T12:35:20;3.7;;;1.7;;
61675;SDS011;47574;52.090;5.244;2022-08-11T12:39:02;5.4;;;1.5;;
61675;SDS011;47574;52.090;5.244;2022-08-11T12:45:41;5.7;;;1.5;;
61675;SDS011;47574;52.090;5.244;2022-08-11T12:51:59;3.2;;;1.5;;
61675;SDS011;47574;52.090;5.244;2022-08-11T12:52:26;3.5;;;1.5;;
61675;SDS011;47574;52.090;5.244;2022-08-11T12:54:25;3.7;;;1.4;;
61675;SDS011;47574;52.090;5.244;2022-08-11T13:05:22;5.4;;;1.6;;
61675;SDS011;47574;52.090;5.244;2022-08-11T13:07:10;3.2;;;1.4;;
61675;SDS011;47574;52.090;5.244;2022-08-11T13:08:58;3.9;;;1.5;;
61675;SDS011;47574;52.090;5.244;2022-08-11T13:13:47;2.9;;;1.4;;
61675;SDS011;47574;52.090;5.244;2022-08-11T13:15:35;1.8;;;1.2;;
61675;SDS011;47574;52.090;5.244;2022-08-11T13:17:23;6.6;;;1.6;;
61675;SDS011;47574;52.090;5.244;2022-08-11T13:19:11;3.0;;;1.2;;
61675;SDS011;47574;52.090;5.244;2022-08-11T13:22:45;6.5;;;1.4;;
61675;SDS011;47574;52.090;5.244;2022-08-11T13:24:35;5.6;;;1.5;;
61675;SDS011;47574;52.090;5.244;2022-08-11T13:26:24;1.6;;;1.4;;
61675;SDS011;47574;52.090;5.244;2022-08-11T13:28:11;2.9;;;1.4;;
61675;SDS011;47574;52.090;5.244;2022-08-11T13:31:10;5.8;;;1.8;;
61675;SDS011;47574;52.090;5.244;2022-08-11T13:32:56;4.5;;;3.6;;
61675;SDS011;47574;52.090;5.244;2022-08-11T13:34:45;4.91;;;1.9;;
61675;SDS011;47574;52.090;5.244;2022-08-11T13:36:32;4.8;;;1.6;;
61675;SDS011;47574;52.090;5.244;2022-08-11T13:38:21;3.8;;;2.6;;
61675;SDS011;47574;52.090;5.244;2022-08-11T13:40:10;3.7;;;1.8;;
61675;SDS011;47574;52.090;5.244;2022-08-11T13:43:47;1.4;;;1.3;;
61675;SDS011;47574;52.090;5.244;2022-08-11T13:45:35;3.7;;;1.5;;
61675;SDS011;47574;52.090;5.244;2022-08-11T13:47:23;5.2;;;1.5;;
61675;SDS011;47574;52.090;5.244;2022-08-11T13:49:10;4.0;;;1.6;;
61675;SDS011;47574;52.090;5.244;2022-08-11T13:51:34;2.0;;;1.5;;
61675;SDS011;47574;52.090;5.244;2022-08-11T13:53:25;3.0;;;1.7;;
61675;SDS011;47574;52.090;5.244;2022-08-11T13:55:20;6.3;;;1.5;;
61675;SDS011;47574;52.090;5.244;2022-08-11T13:57:08;4.2;;;1.6;;
61675;SDS011;47574;52.090;5.244;2022-08-11T13:58:58;2.21;;;1.6;;
61675;SDS011;47574;52.090;5.244;2022-08-11T14:02:39;4.2;;;1.8;;
61675;SDS011;47574;52.090;5.244;2022-08-11T14:06:19;1.8;;;1.3;;
61675;SDS011;47574;52.090;5.244;2022-08-11T14:08:31;8.2;;;1.4;;
61675;SDS011;47574;52.090;5.244;2022-08-11T14:10:23;2.7;;;1.6;;
61675;SDS011;47574;52.090;5.244;2022-08-11T14:15:19;1.8;;;1.4;;
61675;SDS011;47574;52.090;5.244;2022-08-11T14:17:08;1.7;;;1.6;;
61675;SDS011;47574;52.090;5.244;2022-08-11T14:18:58;6.4;;;1.6;;
61675;SDS011;47574;52.090;5.244;2022-08-11T14:23:54;4.5;;;1.7;;
61675;SDS011;47574;52.090;5.244;2022-08-11T14:26:22;2.21;;;1.2;;
61675;SDS011;47574;52.090;5.244;2022-08-11T14:28:08;4.0;;;1.7;;
61675;SDS011;47574;52.090;5.244;2022-08-11T14:29:56;2.1;;;1.4;;
61675;SDS011;47574;52.090;5.244;2022-08-11T14:31:45;2.4;;;1.3;;
61675;SDS011;47574;52.090;5.244;2022-08-11T14:33:34;2.4;;;1.2;;
61675;SDS011;47574;52.090;5.244;2022-08-11T14:35:23;2.4;;;1.3;;
61675;SDS011;47574;52.090;5.244;2022-08-11T14:37:12;2.8;;;1.5;;
61675;SDS011;47574;52.090;5.244;2022-08-11T14:39:04;5.0;;;3.6;;
61675;SDS011;47574;52.090;5.244;2022-08-11T14:47:39;2.0;;;1.4;;
61675;SDS011;47574;52.090;5.244;2022-08-11T14:49:27;1.9;;;1.5;;
61675;SDS011;47574;52.090;5.244;2022-08-11T14:51:14;6.2;;;2.1;;
61675;SDS011;47574;52.090;5.244;2022-08-11T14:58:38;2.6;;;1.7;;
61675;SDS011;47574;52.090;5.244;2022-08-11T15:00:27;2.31;;;1.5;;
61675;SDS011;47574;52.090;5.244;2022-08-11T15:03:20;2.5;;;1.7;;
61675;SDS011;47574;52.090;5.244;2022-08-11T15:05:08;2.1;;;1.4;;
61675;SDS011;47574;52.090;5.244;2022-08-11T15:06:56;3.1;;;1.5;;
61675;SDS011;47574;52.090;5.244;2022-08-11T15:08:59;3.3;;;1.4;;
61675;SDS011;47574;52.090;5.244;2022-08-11T15:10:46;1.6;;;1.2;;
61675;SDS011;47574;52.090;5.244;2022-08-11T15:12:35;4.3;;;1.5;;
61675;SDS011;47574;52.090;5.244;2022-08-11T15:18:10;3.6;;;1.3;;
61675;SDS011;47574;52.090;5.244;2022-08-11T15:24:24;2.0;;;1.5;;
61675;SDS011;47574;52.090;5.244;2022-08-11T15:26:12;2.4;;;1.6;;
61675;SDS011;47574;52.090;5.244;2022-08-11T15:38:32;5.3;;;1.4;;
61675;SDS011;47574;52.090;5.244;2022-08-11T15:46:34;3.1;;;1.4;;
61675;SDS011;47574;52.090;5.244;2022-08-11T15:48:29;4.1;;;1.6;;
61675;SDS011;47574;52.090;5.244;2022-08-11T15:50:29;3.3;;;1.4;;
61675;SDS011;47574;52.090;5.244;2022-08-11T15:52:20;3.5;;;1.8;;
61675;SDS011;47574;52.090;5.244;2022-08-11T15:54:10;6.6;;;1.6;;
61675;SDS011;47574;52.090;5.244;2022-08-11T16:04:34;5.7;;;1.7;;
61675;SDS011;47574;52.090;5.244;2022-08-11T16:08:12;2.31;;;1.4;;
61675;SDS011;47574;52.090;5.244;2022-08-11T16:10:05;3.2;;;1.5;;
61675;SDS011;47574;52.090;5.244;2022-08-11T16:11:53;4.2;;;1.2;;
61675;SDS011;47574;52.090;5.244;2022-08-11T16:16:48;5.5;;;2.0;;
61675;SDS011;47574;52.090;5.244;2022-08-11T16:18:40;3.2;;;1.5;;
61675;SDS011;47574;52.090;5.244;2022-08-11T16:20:30;1.8;;;1.3;;
61675;SDS011;47574;52.090;5.244;2022-08-11T16:22:21;1.9;;;1.11;;
61675;SDS011;47574;52.090;5.244;2022-08-11T16:24:13;2.5;;;1.11;;
61675;SDS011;47574;52.090;5.244;2022-08-11T16:26:02;2.5;;;1.2;;
61675;SDS011;47574;52.090;5.244;2022-08-11T16:27:50;3.5;;;1.3;;
61675;SDS011;47574;52.090;5.244;2022-08-11T16:29:46;4.3;;;1.5;;
61675;SDS011;47574;52.090;5.244;2022-08-11T16:33:27;5.8;;;1.8;;
61675;SDS011;47574;52.090;5.244;2022-08-11T16:38:34;3.5;;;1.5;;
61675;SDS011;47574;52.090;5.244;2022-08-11T16:40:25;2.9;;;1.4;;
61675;SDS011;47574;52.090;5.244;2022-08-11T16:49:06;2.5;;;1.4;;
61675;SDS011;47574;52.090;5.244;2022-08-11T16:51:09;2.1;;;1.5;;
61675;SDS011;47574;52.090;5.244;2022-08-11T16:52:57;3.9;;;1.8;;
61675;SDS011;47574;52.090;5.244;2022-08-11T16:54:46;1.7;;;1.6;;
61675;SDS011;47574;52.090;5.244;2022-08-11T16:59:31;3.4;;;1.8;;
61675;SDS011;47574;52.090;5.244;2022-08-11T17:01:22;4.91;;;1.2;;
61675;SDS011;47574;52.090;5.244;2022-08-11T17:13:08;4.91;;;1.7;;
61675;SDS011;47574;52.090;5.244;2022-08-11T17:14:57;3.1;;;1.6;;
61675;SDS011;47574;52.090;5.244;2022-08-11T17:16:48;2.1;;;1.3;;
61675;SDS011;47574;52.090;5.244;2022-08-11T17:18:42;1.2;;;1.11;;
61675;SDS011;47574;52.090;5.244;2022-08-11T17:20:32;4.91;;;1.5;;
61675;SDS011;47574;52.090;5.244;2022-08-11T17:25:25;2.6;;;1.4;;
61675;SDS011;47574;52.090;5.244;2022-08-11T17:27:15;2.21;;;1.2;;
61675;SDS011;47574;52.090;5.244;2022-08-11T17:35:46;2.7;;;1.2;;
61675;SDS011;47574;52.090;5.244;2022-08-11T17:37:34;2.8;;;1.3;;
61675;SDS011;47574;52.090;5.244;2022-08-11T17:39:23;2.6;;;1.5;;
61675;SDS011;47574;52.090;5.244;2022-08-11T17:48:27;3.2;;;1.3;;
61675;SDS011;47574;52.090;5.244;2022-08-11T17:51:05;5.3;;;1.6;;
61675;SDS011;47574;52.090;5.244;2022-08-11T18:00:06;3.7;;;1.2;;
61675;SDS011;47574;52.090;5.244;2022-08-11T18:01:55;2.1;;;1.2;;
61675;SDS011;47574;52.090;5.244;2022-08-11T18:03:45;2.0;;;1.3;;
